Aérodrome :
LOGIN :

S'inscrire | Disclaimer

   EN    FR    IT 

 










Légende :    VFR   VFR Marginal   IFR   IFR Intensif   IFR Très Intensif
Visi : 
Plafond : 
>= 8 km
>= 3000ft
5 à 8 km
1000 à 3000 ft
1500m à 5 km
500 à 1000 ft
800 à 1500m
200 à 500 ft
< 800m
< 200 ft
Symboles :   Orages  Brouillard  Fortes neiges  Fortes précipitations  Vent > 20 kt
SIGMETs :   Divers  Orages  Givrage  Turbulence  Onde Orograph.  Cendres Volcan.






- Altitude de l'aérodrome : 26 ft
- Code IATA : BIA


LFKB - Bastia

DERNIER METAR :
  • 210300Z AUTO 21005KT 180V240 9000 FEW007 SCT022 20/19 Q1017 TEMPO BKN005 BKN020

METARs EXPIRÉS :
  • 210230Z AUTO 17005KT 130V210 5000 BR FEW007 SCT021 20/19 Q1016 BECMG SCT006 BKN011
  • 210200Z AUTO VRB03KT 9000 SCT007 20/19 Q1016 TEMPO 15015G25KT 4000 RADZ BR BECMG SCT006 BKN011
  • 210130Z AUTO 17005KT 140V200 6000 SCT006 BKN013 BKN018 20/19 Q1016 TEMPO 15015G25KT 4000 RADZ BR BKN005 BKN010
  • 210100Z AUTO 17005KT 130V200 4000 BR SCT007 BKN013 BKN031 20/20 Q1016 TEMPO 15015G25KT RADZ BKN005 BKN010
  • 210030Z AUTO 16007KT 4900 BR FEW006 BKN013 BKN027 21/20 Q1017 TEMPO 15015G25KT RADZ BKN005 BKN010

TAF TAF LFKB
Valide du 21 à 03h jusqu'au 22 à 03h UTC


210200Z 2103/2203 25006KT 9999 SCT006 TX24/2112Z TN18/2104Z
TEMPO 2103/2108 BKN005 BKN020
BECMG 2108/2110 15010KT
TEMPO 2110/2121 3000 RADZ BKN005 BKN010
ATIS : +33 4 95 59 19 40



MET'MAP, la Météo Aéronautique d'un coup d'oeil ! - Copyright ORBIFLY Décembre 2007 - Disclaimer

ORBIFLY MET'MAP TEAM :

Programmation & Développement : Alexandra Zaïnal
Conception & Développement : Baudouin d'Aumeries
Co-Programmation & Développement : Marc-Olivier Méhu
Soutien technique & logistique : Manuel Goepfert

Contact : metmap@orbifly.com




SOURCES & CREDITS :

   NOAA